Portada
METAR-TAF:

METAR-TAF

Aeroports :

Hawkins Field

Jackson, Mississipí, Estats Units d'Amèrica

latitud: 32-20-05N, longitud: 090-13-21W, altitud: 104 m

Observació

L'informe es va fer fa 14 hores i 2 minuts, a les 20:53 UTC
Vent 14 kt del Nord amb ràfegues de 23 kt
Temperatura 6°C
Humitat 81%
Pressió 1026 hPa
Visibilitat: 16.1 km
Cel cobert a una alçada de 1200 ft

METAR: KHKS 202053Z AUTO 01014G23KT 10SM OVC012 06/03 A3031

Hora: 04:55 (10:55 UTC)

Pronòstic

L'informe es va fer fa 5 hores i 35 minuts, a les 05:20 UTC
Pronòstic vàlid del 21 a les 06 UTC al 22 a les 06 UTC
Vent 15 kt del Nord amb ràfegues de 20 kt
Visibilitat: 10 km
Cel clar

TAF: KHKS 210520Z 2106/2206 01015G20KT P6SM SKC

Observacions i pronòstics meteorològics de més de 4000 aeroports (METAR i TAF).

Les estacions disponibles són els punts grocs i vermells al mapa.

Posi el ratolí al punt desitjat per veure el nom de l'estació.

Feu clic per veure les observacions i els pronòstics meteorològics.

Per canviar el mapa: feu clic els botons verds amb una creu de color negre per apropar; al botó verd amb un guió per allunyar la imatge; o en les fletxes verdes per a mapes adjacents.


METAR-TAF: